Allerton, New York
Current Conditions -  °F | °C
As of 6:51 AM on Sunday 21 Dec 2014 (Local Time) from KLGA Reporting Station
Overcast Overcast  
Wind Chill: 26°   Ceiling: 2600
Heat Index: 32°   Visibility: 10mi
Dew Point: 25°   Wind: 7mph
Humidity: 75%   Direction: 350°N
Pressure: 30.3"   Gusts: NA
Location:  40.8778°N, 73.8721°W
Report Text: KLGA 211151Z 35006KT 10SM SCT017 BKN026 OVC037 00/M04 A3030 RMK AO2 SLP261 T00001039 10006 20000 53008
Loading
Personal Weather Stations






























Interactive Weather Map New forecast layout! Learn more

10-Day Weather Forecast

Advertisements
Track Severe Weather on mobile